createdAt,value
2023-04-18T00:00:12.457Z,20.42
2023-04-18T00:05:44.257Z,26.13
2023-04-18T00:11:12.037Z,21.67
2023-04-18T00:16:39.796Z,23.42
2023-04-18T00:22:07.421Z,24.58
2023-04-18T00:27:36.016Z,20.98
2023-04-18T00:33:04.646Z,22.90
2023-04-18T00:38:31.668Z,23.95
2023-04-18T00:43:58.886Z,20.35
2023-04-18T00:49:27.356Z,26.33
2023-04-18T00:54:55.214Z,24.60
2023-04-18T01:00:23.004Z,26.77
2023-04-18T01:05:50.363Z,27.45
2023-04-18T01:11:17.856Z,21.80
2023-04-18T01:16:51.216Z,24.77
2023-04-18T01:22:20.807Z,27.65
2023-04-18T01:27:48.219Z,26.45
2023-04-18T01:33:16.570Z,24.85
2023-04-18T01:38:47.244Z,25.48
2023-04-18T01:44:15.304Z,26.30
2023-04-18T01:49:48.262Z,25.15
2023-04-18T01:55:16.171Z,21.08
2023-04-18T02:00:44.735Z,25.02
2023-04-18T02:06:12.026Z,22.77
2023-04-18T02:11:39.180Z,25.77
2023-04-18T02:17:07.355Z,23.23
2023-04-18T02:22:36.417Z,21.75
2023-04-18T02:28:04.583Z,22.40
2023-04-18T02:33:31.798Z,21.30
2023-04-18T02:38:59.098Z,21.23
2023-04-18T02:44:26.397Z,22.52
2023-04-18T02:49:53.873Z,23.08
2023-04-18T02:55:22.974Z,23.00
2023-04-18T03:00:54.681Z,18.63
2023-04-18T03:06:44.997Z,19.60
2023-04-18T03:12:12.335Z,22.98
2023-04-18T03:17:41.783Z,23.65
2023-04-18T03:23:09.453Z,20.85
2023-04-18T03:28:37.516Z,22.65
2023-04-18T03:34:06.407Z,20.65
2023-04-18T03:39:34.607Z,19.90
2023-04-18T03:45:02.357Z,22.35
2023-04-18T03:50:33.510Z,20.73
2023-04-18T03:56:02.186Z,22.15
2023-04-18T04:01:46.182Z,21.30
2023-04-18T04:07:15.394Z,22.50
2023-04-18T04:12:42.555Z,20.55
2023-04-18T04:18:10.493Z,25.30
2023-04-18T04:23:44.544Z,20.70
2023-04-18T04:29:21.777Z,24.65
2023-04-18T04:34:49.730Z,21.83
2023-04-18T04:40:17.834Z,21.80
2023-04-18T04:45:53.356Z,23.77
2023-04-18T04:56:52.812Z,25.73
2023-04-18T05:02:23.555Z,27.55
2023-04-18T05:07:51.798Z,17.83
2023-04-18T05:13:19.586Z,27.27
2023-04-18T05:18:50.748Z,22.27
2023-04-18T05:24:18.920Z,21.15
2023-04-18T05:29:48.105Z,19.70
2023-04-18T05:35:15.631Z,17.60
2023-04-18T05:40:43.661Z,20.77
2023-04-18T05:46:12.784Z,23.27
2023-04-18T05:51:39.508Z,23.63
2023-04-18T05:57:06.571Z,18.83
2023-04-18T06:02:34.005Z,25.40
2023-04-18T06:08:02.093Z,24.27
2023-04-18T06:13:29.932Z,24.02
2023-04-18T06:19:00.933Z,23.92
2023-04-18T06:24:30.757Z,23.88
2023-04-18T06:29:58.939Z,22.38
2023-04-18T06:35:27.071Z,22.30
2023-04-18T06:40:54.532Z,18.63
2023-04-18T06:46:21.882Z,17.85
2023-04-18T06:51:48.822Z,14.02
2023-04-18T06:57:16.439Z,19.60
2023-04-18T07:02:44.039Z,19.90
2023-04-18T07:08:11.840Z,18.50
2023-04-18T07:13:39.348Z,20.27
2023-04-18T07:19:07.165Z,21.15
2023-04-18T07:24:34.786Z,19.05
2023-04-18T07:30:02.575Z,17.42
2023-04-18T07:35:29.935Z,14.35
2023-04-18T07:40:58.498Z,15.85
2023-04-18T07:46:26.479Z,12.13
2023-04-18T07:51:54.104Z,14.70
2023-04-18T07:57:22.011Z,14.30
2023-04-18T08:02:49.447Z,10.52
2023-04-18T08:08:17.339Z,12.85
2023-04-18T08:13:45.030Z,13.75
2023-04-18T08:19:12.546Z,8.85
2023-04-18T08:24:42.888Z,11.18
2023-04-18T08:30:16.032Z,13.65
2023-04-18T08:35:43.353Z,11.80
2023-04-18T08:41:11.049Z,12.57
2023-04-18T08:46:38.576Z,10.43
2023-04-18T08:52:14.983Z,10.57
2023-04-18T08:57:42.238Z,8.95
2023-04-18T09:03:15.789Z,9.65
2023-04-18T09:08:44.654Z,8.32
2023-04-18T09:14:24.862Z,12.50
2023-04-18T09:19:54.725Z,12.43
2023-04-18T09:25:45.490Z,14.40
2023-04-18T09:31:14.731Z,14.90
2023-04-18T09:36:42.246Z,11.02
2023-04-18T09:42:10.712Z,12.38
2023-04-18T09:47:38.379Z,15.43
2023-04-18T09:53:07.923Z,14.82
2023-04-18T09:58:41.376Z,16.27
2023-04-18T10:04:10.322Z,15.25
2023-04-18T10:09:39.718Z,15.18
2023-04-18T10:15:09.390Z,15.95
2023-04-18T10:20:36.688Z,17.85
2023-04-18T10:26:06.084Z,12.40
2023-04-18T10:31:39.477Z,18.55
2023-04-18T10:37:07.365Z,17.40
2023-04-18T10:42:52.743Z,18.67
2023-04-18T10:48:30.295Z,14.75
2023-04-18T10:54:00.652Z,17.20
2023-04-18T10:59:30.381Z,15.88
2023-04-18T11:05:02.477Z,16.75
2023-04-18T11:10:29.732Z,15.10
2023-04-18T11:15:57.779Z,14.57
2023-04-18T11:21:30.404Z,13.18
2023-04-18T11:26:58.676Z,17.30
2023-04-18T11:32:25.789Z,16.83
2023-04-18T11:37:54.890Z,13.95
2023-04-18T11:43:25.091Z,13.93
2023-04-18T11:48:52.600Z,14.30
2023-04-18T11:54:39.425Z,14.80
2023-04-18T12:00:10.467Z,19.77
2023-04-18T12:05:38.895Z,20.38
2023-04-18T12:11:06.847Z,19.40
2023-04-18T12:16:34.008Z,17.50
2023-04-18T12:22:06.911Z,19.80
2023-04-18T12:27:53.880Z,18.83
2023-04-18T12:33:22.033Z,17.73
2023-04-18T12:38:50.089Z,18.23
2023-04-18T12:44:17.857Z,16.20
2023-04-18T12:49:44.678Z,16.63
2023-04-18T12:55:12.696Z,17.10
2023-04-18T13:00:40.191Z,17.92
2023-04-18T13:06:08.226Z,16.20
2023-04-18T13:11:35.962Z,17.05
2023-04-18T13:17:03.133Z,16.20
2023-04-18T13:22:31.857Z,16.08
2023-04-18T13:28:01.191Z,21.13
2023-04-18T13:33:28.809Z,19.90
2023-04-18T13:38:56.153Z,18.85
2023-04-18T13:44:25.298Z,19.58
2023-04-18T13:49:53.600Z,20.55
2023-04-18T13:55:21.376Z,23.60
2023-04-18T14:00:49.179Z,22.77
2023-04-18T14:06:17.617Z,22.27
2023-04-18T14:11:45.746Z,23.80
2023-04-18T14:17:13.434Z,22.80
2023-04-18T14:22:40.989Z,21.88
2023-04-18T14:28:11.049Z,20.60
2023-04-18T14:33:39.132Z,19.20
2023-04-18T14:39:07.629Z,17.40
2023-04-18T14:44:35.247Z,19.45
2023-04-18T14:50:03.255Z,16.35
2023-04-18T14:55:31.609Z,19.95
2023-04-18T15:01:00.422Z,17.88
2023-04-18T15:06:28.736Z,18.63
2023-04-18T15:11:58.466Z,16.77
2023-04-18T15:17:26.699Z,18.40
2023-04-18T15:22:54.658Z,18.35
2023-04-18T15:28:22.234Z,17.13
2023-04-18T15:33:49.431Z,20.38
2023-04-18T15:39:21.950Z,19.20
2023-04-18T15:44:50.919Z,20.77
2023-04-18T15:50:18.604Z,21.75
2023-04-18T15:55:47.167Z,20.83
2023-04-18T16:01:16.153Z,21.83
2023-04-18T16:06:44.091Z,23.42
2023-04-18T16:12:11.414Z,23.35
2023-04-18T16:17:39.434Z,22.30
2023-04-18T16:23:06.334Z,23.08
2023-04-18T16:28:37.867Z,23.05
2023-04-18T16:34:05.254Z,23.75
2023-04-18T16:39:32.754Z,24.08
2023-04-18T16:45:04.387Z,23.05
2023-04-18T16:50:31.649Z,25.50
2023-04-18T16:56:01.068Z,24.90
2023-04-18T17:01:28.275Z,26.38
2023-04-18T17:06:56.949Z,25.13
2023-04-18T17:12:24.510Z,24.95
2023-04-18T17:17:51.578Z,25.52
2023-04-18T17:23:18.882Z,24.25
2023-04-18T17:28:46.502Z,24.83
2023-04-18T17:34:13.749Z,28.33
2023-04-18T17:39:41.857Z,27.42
2023-04-18T17:45:11.164Z,26.10
2023-04-18T17:50:38.870Z,25.80
2023-04-18T17:56:06.839Z,26.77
2023-04-18T18:01:35.049Z,25.85
2023-04-18T18:07:02.777Z,24.63
2023-04-18T18:12:30.992Z,25.25
2023-04-18T18:17:59.442Z,26.73
2023-04-18T18:23:27.481Z,26.27
2023-04-18T18:28:54.980Z,24.25
2023-04-18T18:34:22.888Z,22.05
2023-04-18T18:39:50.874Z,21.98
2023-04-18T18:45:19.934Z,20.65
2023-04-18T18:50:48.320Z,20.75
2023-04-18T18:56:16.079Z,20.65
2023-04-18T19:01:44.233Z,22.00
2023-04-18T19:07:12.086Z,21.65
2023-04-18T19:12:40.162Z,21.70
2023-04-18T19:18:07.937Z,22.98
2023-04-18T19:23:36.228Z,23.27
2023-04-18T19:29:03.931Z,22.98
2023-04-18T19:34:31.261Z,23.50
2023-04-18T19:39:58.960Z,24.88
2023-04-18T19:45:28.341Z,23.42
2023-04-18T19:50:57.370Z,23.73
2023-04-18T19:56:26.116Z,21.10
2023-04-18T20:02:05.020Z,23.00
2023-04-18T20:07:37.038Z,20.55
2023-04-18T20:13:06.133Z,23.98
2023-04-18T20:24:51.506Z,28.60
2023-04-18T20:30:19.018Z,27.98
2023-04-18T20:35:47.673Z,20.52
2023-04-18T20:41:18.428Z,22.55
2023-04-18T20:46:47.534Z,22.90
2023-04-18T20:52:16.166Z,23.27
2023-04-18T20:57:45.379Z,24.65
2023-04-18T21:03:14.172Z,24.73
2023-04-18T21:08:41.406Z,23.77
2023-04-18T21:14:09.436Z,24.38
2023-04-18T21:19:37.634Z,23.83
2023-04-18T21:25:05.340Z,22.52
2023-04-18T21:30:32.096Z,24.33
2023-04-18T21:35:59.450Z,21.77
2023-04-18T21:41:27.989Z,23.40
2023-04-18T21:46:56.520Z,21.88
2023-04-18T21:52:25.837Z,20.50
2023-04-18T21:57:54.509Z,21.27
2023-04-18T22:03:22.604Z,19.85
2023-04-18T22:08:51.842Z,21.20
2023-04-18T22:14:20.504Z,20.58
2023-04-18T22:19:49.950Z,20.08
2023-04-18T22:25:17.011Z,20.83
2023-04-18T22:30:44.346Z,18.83
2023-04-18T22:36:11.521Z,20.20
2023-04-18T22:41:38.632Z,17.55
2023-04-18T22:47:06.625Z,18.83
2023-04-18T22:52:34.874Z,19.40
2023-04-18T22:58:03.607Z,19.48
2023-04-18T23:03:34.739Z,15.32
2023-04-18T23:09:03.337Z,16.58
2023-04-18T23:14:30.504Z,14.52
2023-04-18T23:19:57.562Z,17.42
2023-04-18T23:25:24.572Z,16.75
2023-04-18T23:30:51.326Z,15.48
2023-04-18T23:36:18.645Z,18.23
2023-04-18T23:41:45.870Z,15.35
2023-04-18T23:47:13.335Z,18.92
2023-04-18T23:52:40.882Z,15.82
2023-04-18T23:58:08.868Z,17.55
